createdAt,value
2019-05-23T00:00:22.813Z,0.6
2019-05-23T00:01:22.847Z,0.0
2019-05-23T00:02:12.922Z,0.2
2019-05-23T00:03:13.195Z,0.0
2019-05-23T00:04:14.308Z,0.0
2019-05-23T00:05:23.146Z,0.0
2019-05-23T00:06:23.235Z,0.0
2019-05-23T00:07:13.427Z,0.0
2019-05-23T00:08:13.404Z,0.0
2019-05-23T00:09:13.424Z,0.0
2019-05-23T00:10:23.476Z,0.0
2019-05-23T00:11:23.540Z,0.0
2019-05-23T00:12:13.536Z,0.0
2019-05-23T00:13:13.551Z,0.0
2019-05-23T00:14:13.562Z,0.0
2019-05-23T00:15:24.651Z,0.8
2019-05-23T00:16:23.587Z,0.8
2019-05-23T00:17:13.616Z,0.8
2019-05-23T00:18:13.638Z,0.8
2019-05-23T00:19:13.660Z,0.8
2019-05-23T00:20:23.688Z,0.8
2019-05-23T00:21:23.701Z,0.8
2019-05-23T00:22:13.711Z,0.8
2019-05-23T00:23:13.724Z,0.4
2019-05-23T00:24:13.738Z,0.0
2019-05-23T00:25:23.756Z,0.0
2019-05-23T00:26:24.014Z,0.0
2019-05-23T00:27:13.846Z,0.0
2019-05-23T00:28:13.948Z,0.0
2019-05-23T00:29:13.886Z,0.2
2019-05-23T00:30:23.899Z,0.8
2019-05-23T00:31:23.946Z,0.4
2019-05-23T00:32:13.969Z,0.8
2019-05-23T00:33:14.011Z,0.0
2019-05-23T00:34:14.061Z,0.0
2019-05-23T00:35:24.036Z,0.2
2019-05-23T00:36:24.043Z,0.4
2019-05-23T00:37:15.241Z,0.4
2019-05-23T00:38:14.109Z,0.4
2019-05-23T00:39:14.114Z,0.8
2019-05-23T00:40:24.138Z,0.8
2019-05-23T00:41:24.162Z,1.0
2019-05-23T00:42:14.167Z,0.8
2019-05-23T00:46:14.288Z,0.8
2019-05-23T00:51:14.411Z,0.8
2019-05-23T01:01:15.102Z,0.8
2019-05-23T01:03:55.196Z,0.8
2019-05-23T01:04:55.202Z,0.8
2019-05-23T01:16:15.411Z,0.6
2019-05-23T01:18:55.454Z,0.6
2019-05-23T01:19:55.501Z,0.4
2019-05-23T01:31:15.726Z,0.6
2019-05-23T01:32:05.739Z,0.8
2019-05-23T01:33:05.878Z,0.8
2019-05-23T01:34:05.837Z,0.8
2019-05-23T01:35:05.838Z,0.8
2019-05-23T01:36:15.840Z,0.6
2019-05-23T01:37:05.874Z,0.8
2019-05-23T01:38:05.909Z,0.6
2019-05-23T01:39:05.920Z,0.0
2019-05-23T01:40:05.997Z,0.0
2019-05-23T01:41:15.938Z,0.0
2019-05-23T01:42:05.954Z,0.6
2019-05-23T01:43:05.965Z,0.6
2019-05-23T01:44:05.983Z,0.8
2019-05-23T01:45:06.030Z,0.2
2019-05-23T01:46:16.020Z,0.0
2019-05-23T01:47:06.081Z,0.0
2019-05-23T01:48:06.258Z,0.0
2019-05-23T01:49:06.232Z,0.2
2019-05-23T01:50:06.222Z,0.2
2019-05-23T01:51:16.225Z,0.0
2019-05-23T01:52:06.334Z,0.0
2019-05-23T01:54:06.415Z,0.0
2019-05-23T01:55:16.419Z,0.0
2019-05-23T01:56:16.432Z,0.2
2019-05-23T01:57:06.502Z,0.8
2019-05-23T01:58:06.511Z,0.8
2019-05-23T01:59:06.514Z,0.8
2019-05-23T02:00:16.561Z,0.8
2019-05-23T02:01:16.749Z,0.9
2019-05-23T02:03:06.858Z,0.0
2019-05-23T02:05:16.902Z,0.0
2019-05-23T02:06:17.033Z,0.0
2019-05-23T02:10:16.990Z,0.0
2019-05-23T02:11:17.114Z,0.0
2019-05-23T02:13:17.256Z,0.0
2019-05-23T02:14:17.274Z,0.0
2019-05-23T02:15:27.288Z,0.0
2019-05-23T02:16:27.304Z,0.0
2019-05-23T02:17:17.447Z,0.0
2019-05-23T02:18:17.352Z,0.0
2019-05-23T02:19:17.344Z,0.0
2019-05-23T02:20:27.361Z,0.0
2019-05-23T02:21:28.553Z,0.0
2019-05-23T02:22:27.407Z,0.0
2019-05-23T02:23:27.424Z,0.0
2019-05-23T02:24:27.425Z,0.0
2019-05-23T02:26:27.466Z,0.0
2019-05-23T02:27:17.531Z,0.0
2019-05-23T02:28:17.547Z,0.0
2019-05-23T02:29:17.565Z,0.6
2019-05-23T02:30:33.674Z,0.8
2019-05-23T02:31:17.686Z,0.8
2019-05-23T02:32:18.328Z,0.6
2019-05-23T02:33:17.753Z,0.6
2019-05-23T02:34:17.807Z,0.0
2019-05-23T02:35:27.787Z,0.0
2019-05-23T02:36:17.853Z,0.0
2019-05-23T02:37:17.808Z,0.0
2019-05-23T02:38:17.833Z,0.0
2019-05-23T02:39:17.858Z,0.0
2019-05-23T02:40:27.850Z,0.0
2019-05-23T02:41:17.881Z,0.0
2019-05-23T02:42:17.883Z,0.0
2019-05-23T02:43:18.181Z,0.0
2019-05-23T02:44:18.023Z,0.0
2019-05-23T02:45:28.043Z,0.0
2019-05-23T02:46:18.053Z,0.0
2019-05-23T02:47:18.177Z,0.0
2019-05-23T02:48:18.208Z,0.6
2019-05-23T02:49:18.217Z,0.9
2019-05-23T02:50:28.297Z,0.8
2019-05-23T02:51:18.252Z,0.8
2019-05-23T02:52:18.293Z,0.8
2019-05-23T02:53:18.290Z,0.8
2019-05-23T02:54:18.353Z,0.8
2019-05-23T02:55:28.323Z,0.8
2019-05-23T02:56:18.392Z,0.8
2019-05-23T02:57:18.415Z,0.6
2019-05-23T02:58:18.421Z,0.8
2019-05-23T02:59:18.443Z,0.8
2019-05-23T03:00:28.481Z,0.4
2019-05-23T03:01:18.494Z,0.2
2019-05-23T03:02:18.526Z,0.0
2019-05-23T03:03:18.589Z,0.0
2019-05-23T03:04:18.640Z,0.0
2019-05-23T03:05:28.807Z,0.0
2019-05-23T03:06:18.678Z,0.0
2019-05-23T03:07:18.732Z,0.0
2019-05-23T03:08:18.747Z,0.0
2019-05-23T03:09:18.761Z,0.0
2019-05-23T03:10:28.782Z,0.0
2019-05-23T03:11:18.833Z,0.0
2019-05-23T03:12:18.881Z,0.0
2019-05-23T03:13:18.853Z,0.0
2019-05-23T03:14:18.862Z,0.0
2019-05-23T03:15:28.878Z,0.0
2019-05-23T03:16:18.912Z,0.0
2019-05-23T03:17:18.944Z,0.0
2019-05-23T03:18:19.016Z,0.0
2019-05-23T03:19:18.963Z,0.0
2019-05-23T03:21:18.996Z,0.0
2019-05-23T03:22:19.048Z,0.0
2019-05-23T03:23:19.071Z,0.0
2019-05-23T03:24:19.177Z,0.0
2019-05-23T03:26:19.223Z,0.0
2019-05-23T03:27:19.225Z,0.0
2019-05-23T03:28:19.316Z,0.0
2019-05-23T03:31:29.262Z,0.0
2019-05-23T03:32:37.296Z,0.0
2019-05-23T03:33:29.458Z,0.0
2019-05-23T03:34:49.475Z,0.0
2019-05-23T03:35:49.497Z,0.0
2019-05-23T03:39:59.572Z,0.0
2019-05-23T03:40:49.626Z,0.0
2019-05-23T03:41:29.605Z,0.0
2019-05-23T03:42:30.700Z,0.0
2019-05-23T03:43:29.718Z,0.0
2019-05-23T03:44:29.688Z,0.0
2019-05-23T03:45:49.721Z,0.0
2019-05-23T03:49:59.958Z,0.0
2019-05-23T03:50:49.886Z,0.0
2019-05-23T03:51:29.907Z,0.0
2019-05-23T03:52:29.927Z,0.0
2019-05-23T03:53:29.993Z,0.0
2019-05-23T03:54:49.999Z,0.0
2019-05-23T03:55:50.151Z,0.0
2019-05-23T03:59:50.081Z,0.0
2019-05-23T04:00:50.153Z,0.0
2019-05-23T04:04:50.346Z,0.0
2019-05-23T04:05:50.355Z,0.0
2019-05-23T04:07:30.528Z,0.0
2019-05-23T04:08:30.394Z,0.0
2019-05-23T04:11:30.470Z,0.0
2019-05-23T04:12:30.553Z,0.0
2019-05-23T04:13:30.556Z,0.0
2019-05-23T04:18:40.787Z,0.0
2019-05-23T04:19:50.675Z,0.0
2019-05-23T04:20:50.702Z,0.0
2019-05-23T04:24:50.886Z,0.6
2019-05-23T04:25:50.884Z,0.8
2019-05-23T04:28:30.946Z,0.8
2019-05-23T04:29:42.022Z,0.0
2019-05-23T04:31:31.210Z,0.0
2019-05-23T04:32:31.185Z,0.0
2019-05-23T04:33:31.194Z,0.0
2019-05-23T04:39:51.322Z,0.0
2019-05-23T04:40:52.055Z,0.4
2019-05-23T04:45:01.489Z,0.0
2019-05-23T04:46:01.536Z,0.0
2019-05-23T04:47:01.615Z,0.0
2019-05-23T04:48:01.702Z,0.0
2019-05-23T04:49:01.663Z,0.0
2019-05-23T04:50:21.688Z,0.0
2019-05-23T04:55:31.749Z,0.0
2019-05-23T04:56:21.760Z,0.0
2019-05-23T04:57:21.774Z,0.0
2019-05-23T04:58:21.784Z,0.0
2019-05-23T05:01:31.880Z,0.0
2019-05-23T05:03:43.292Z,0.6
2019-05-23T05:05:01.969Z,0.0
2019-05-23T05:06:02.022Z,0.0
2019-05-23T05:07:02.212Z,0.0
2019-05-23T05:08:02.130Z,0.0
2019-05-23T05:09:02.104Z,0.0
2019-05-23T05:10:22.133Z,0.0
2019-05-23T05:15:32.307Z,0.0
2019-05-23T05:16:22.309Z,0.0
2019-05-23T05:17:22.308Z,0.0
2019-05-23T05:18:22.387Z,0.0
2019-05-23T05:21:32.423Z,0.0
2019-05-23T05:25:02.565Z,0.0
2019-05-23T05:26:02.616Z,0.0
2019-05-23T05:27:02.630Z,0.0
2019-05-23T05:28:02.727Z,0.0
2019-05-23T05:30:22.782Z,0.0
2019-05-23T05:35:32.871Z,0.0
2019-05-23T05:36:22.961Z,0.0
2019-05-23T05:37:22.903Z,0.0
2019-05-23T05:38:22.913Z,0.0
2019-05-23T05:40:43.945Z,0.0
2019-05-23T05:41:23.226Z,0.0
2019-05-23T05:42:23.008Z,0.0
2019-05-23T05:43:23.087Z,0.0
2019-05-23T05:45:53.177Z,0.0
2019-05-23T05:50:03.318Z,0.0
2019-05-23T05:50:53.332Z,0.0
2019-05-23T05:51:33.410Z,0.0
2019-05-23T05:52:33.357Z,0.0
2019-05-23T05:53:33.364Z,0.0
2019-05-23T05:54:53.381Z,0.0
2019-05-23T05:55:53.391Z,0.0
2019-05-23T06:00:03.521Z,0.0
2019-05-23T06:00:53.544Z,0.0
2019-05-23T06:01:34.445Z,0.0
2019-05-23T06:02:33.575Z,0.0
2019-05-23T06:03:33.589Z,0.0
2019-05-23T06:04:53.636Z,0.0
2019-05-23T06:05:53.697Z,0.0
2019-05-23T06:07:43.767Z,0.0
2019-05-23T06:10:03.783Z,0.4
2019-05-23T06:10:53.798Z,0.6
2019-05-23T06:11:33.815Z,0.6
2019-05-23T06:12:33.849Z,0.8
2019-05-23T06:13:33.918Z,0.6
2019-05-23T06:14:53.878Z,0.0
2019-05-23T06:15:53.897Z,0.0
2019-05-23T06:20:04.038Z,0.0
2019-05-23T06:20:54.078Z,0.8
2019-05-23T06:21:34.057Z,0.4
2019-05-23T06:22:34.082Z,0.6
2019-05-23T06:23:34.194Z,0.8
2019-05-23T06:24:56.607Z,0.6
2019-05-23T06:25:54.283Z,0.0
2019-05-23T06:30:04.352Z,0.0
2019-05-23T06:30:54.404Z,0.0
2019-05-23T06:31:34.574Z,0.0
2019-05-23T06:32:34.426Z,0.0
2019-05-23T06:33:34.477Z,0.0
2019-05-23T06:34:54.501Z,0.0
2019-05-23T06:35:54.495Z,0.0
2019-05-23T06:40:04.712Z,0.4
2019-05-23T06:40:54.719Z,0.6
2019-05-23T06:41:34.721Z,0.8
2019-05-23T06:42:35.379Z,0.2
2019-05-23T06:43:34.892Z,0.0
2019-05-23T06:44:54.835Z,0.2
2019-05-23T06:45:54.863Z,0.0
2019-05-23T06:50:04.994Z,0.2
2019-05-23T06:50:55.066Z,0.2
2019-05-23T06:51:35.032Z,0.2
2019-05-23T06:52:35.101Z,0.8
2019-05-23T06:53:35.143Z,0.2
2019-05-23T06:54:55.272Z,0.8
2019-05-23T06:56:05.154Z,0.8
2019-05-23T06:57:05.146Z,0.6
2019-05-23T06:58:05.189Z,0.8
2019-05-23T06:59:05.207Z,0.8
2019-05-23T07:00:25.219Z,0.8
2019-05-23T07:04:35.316Z,0.6
2019-05-23T07:05:25.342Z,0.6
2019-05-23T07:06:16.492Z,0.8
2019-05-23T07:09:35.380Z,0.0
2019-05-23T07:10:35.404Z,0.0
2019-05-23T07:11:25.506Z,0.6
2019-05-23T07:12:25.534Z,0.8
2019-05-23T07:13:25.498Z,0.2
2019-05-23T07:16:35.562Z,0.8
2019-05-23T07:17:25.570Z,0.6
2019-05-23T07:18:25.597Z,0.2
2019-05-23T07:21:35.674Z,0.4
2019-05-23T07:22:35.755Z,0.4
2019-05-23T07:23:35.896Z,0.0
2019-05-23T07:24:58.498Z,0.4
2019-05-23T07:26:05.840Z,0.6
2019-05-23T07:27:05.938Z,0.6
2019-05-23T07:28:05.918Z,0.8
2019-05-23T07:29:06.160Z,0.2
2019-05-23T07:30:25.957Z,0.6
2019-05-23T07:34:36.074Z,0.6
2019-05-23T07:35:26.249Z,0.8
2019-05-23T07:43:16.360Z,0.9
2019-05-23T07:44:47.746Z,0.8
2019-05-23T07:45:39.517Z,0.4
2019-05-23T07:46:26.293Z,0.6
2019-05-23T07:47:26.293Z,0.8
2019-05-23T07:48:26.319Z,0.6
2019-05-23T07:51:36.412Z,0.8
2019-05-23T07:52:26.416Z,0.9
2019-05-23T07:53:26.424Z,1.2
2019-05-23T07:56:56.611Z,0.9
2019-05-23T07:57:56.585Z,0.8
2019-05-23T07:59:06.519Z,0.6
2019-05-23T08:00:06.597Z,0.8
2019-05-23T08:01:06.576Z,0.8
2019-05-23T08:02:26.720Z,0.6
2019-05-23T08:06:36.782Z,1.0
2019-05-23T08:07:37.002Z,0.8
2019-05-23T08:11:26.963Z,1.0
2019-05-23T08:16:37.067Z,0.8
2019-05-23T08:21:37.141Z,0.6
2019-05-23T08:22:27.169Z,0.8
2019-05-23T08:23:27.233Z,0.8
2019-05-23T08:24:27.209Z,0.4
2019-05-23T08:25:27.262Z,0.6
2019-05-23T08:27:27.296Z,0.8
2019-05-23T08:28:27.316Z,0.8
2019-05-23T08:29:27.316Z,0.4
2019-05-23T08:30:27.340Z,0.8
2019-05-23T08:31:48.599Z,0.9
2019-05-23T08:32:37.399Z,0.5
2019-05-23T08:33:27.409Z,0.9
2019-05-23T08:34:40.388Z,1.6
2019-05-23T08:35:27.439Z,1.4
2019-05-23T08:37:27.486Z,0.9
2019-05-23T08:38:27.485Z,0.8
2019-05-23T08:39:27.492Z,0.4
2019-05-23T08:40:27.520Z,0.8
2019-05-23T08:42:37.583Z,1.0
2019-05-23T08:43:28.836Z,0.8
2019-05-23T08:44:27.692Z,0.9
2019-05-23T08:45:27.706Z,1.1
2019-05-23T08:47:27.779Z,1.0
2019-05-23T08:48:27.791Z,1.1
2019-05-23T08:49:27.806Z,0.9
2019-05-23T08:50:27.852Z,1.8
2019-05-23T08:52:38.086Z,1.0
2019-05-23T08:53:28.097Z,1.1
2019-05-23T08:54:28.247Z,0.8
2019-05-23T08:55:28.129Z,1.0
2019-05-23T08:57:28.265Z,1.8
2019-05-23T08:58:28.278Z,1.0
2019-05-23T08:59:28.410Z,1.1
2019-05-23T09:00:28.379Z,0.9
2019-05-23T09:02:38.367Z,0.8
2019-05-23T09:03:28.349Z,0.8
2019-05-23T09:04:28.406Z,0.8
2019-05-23T09:05:28.411Z,0.9
2019-05-23T09:07:28.480Z,0.9
2019-05-23T09:08:28.496Z,0.8
2019-05-23T09:09:29.898Z,1.1
2019-05-23T09:10:28.563Z,1.1
2019-05-23T09:12:28.677Z,0.7
2019-05-23T09:13:28.687Z,0.9
2019-05-23T09:14:28.707Z,0.8
2019-05-23T09:15:28.724Z,0.8
2019-05-23T09:17:51.926Z,0.8
2019-05-23T09:18:28.761Z,0.8
2019-05-23T09:19:28.831Z,0.6
2019-05-23T09:20:28.837Z,0.8
2019-05-23T09:22:28.867Z,0.8
2019-05-23T09:23:28.871Z,0.8
2019-05-23T09:24:28.893Z,0.8
2019-05-23T09:25:28.910Z,0.2
2019-05-23T09:27:39.046Z,0.8
2019-05-23T09:28:29.068Z,0.6
2019-05-23T09:29:29.070Z,0.6
2019-05-23T09:30:29.128Z,0.8
2019-05-23T09:32:29.215Z,0.8
2019-05-23T09:33:29.160Z,0.8
2019-05-23T09:34:29.178Z,0.2
2019-05-23T09:35:29.221Z,0.4
2019-05-23T09:37:39.272Z,0.8
2019-05-23T09:38:29.251Z,0.8
2019-05-23T09:39:29.277Z,1.0
2019-05-23T09:40:29.290Z,0.6
2019-05-23T09:42:29.442Z,0.9
2019-05-23T09:43:29.485Z,0.9
2019-05-23T09:44:29.492Z,0.8
2019-05-23T09:45:29.537Z,0.8
2019-05-23T09:47:29.634Z,0.8
2019-05-23T09:48:29.643Z,0.8
2019-05-23T09:49:29.663Z,0.8
2019-05-23T09:50:29.718Z,0.8
2019-05-23T09:52:39.736Z,0.8
2019-05-23T09:53:29.753Z,0.8
2019-05-23T09:54:29.752Z,0.4
2019-05-23T09:55:29.833Z,0.0
2019-05-23T09:57:29.868Z,0.8
2019-05-23T09:59:29.880Z,0.8
2019-05-23T10:00:29.896Z,0.8
2019-05-23T10:02:29.932Z,0.6
2019-05-23T10:03:30.008Z,0.8
2019-05-23T10:04:29.974Z,0.8
2019-05-23T10:05:41.317Z,0.8
2019-05-23T10:07:30.053Z,1.0
2019-05-23T10:08:30.089Z,1.2
2019-05-23T10:09:31.172Z,1.5
2019-05-23T10:10:30.194Z,0.9
2019-05-23T10:12:30.194Z,0.7
2019-05-23T10:13:38.852Z,1.2
2019-05-23T10:14:30.222Z,1.0
2019-05-23T10:15:30.243Z,0.8
2019-05-23T10:17:30.269Z,1.0
2019-05-23T10:18:30.277Z,1.0
2019-05-23T10:19:30.302Z,0.8
2019-05-23T10:20:30.318Z,1.1
2019-05-23T10:22:30.361Z,1.3
2019-05-23T10:23:30.397Z,1.6
2019-05-23T10:24:30.422Z,0.8
2019-05-23T10:25:30.429Z,0.8
2019-05-23T10:27:30.543Z,0.9
2019-05-23T10:28:30.562Z,1.1
2019-05-23T10:29:30.571Z,0.8
2019-05-23T10:30:30.586Z,0.9
2019-05-23T10:32:30.622Z,0.8
2019-05-23T10:33:31.642Z,0.8
2019-05-23T10:34:30.657Z,1.2
2019-05-23T10:35:30.696Z,0.8
2019-05-23T10:37:30.734Z,0.8
2019-05-23T10:38:30.744Z,0.9
2019-05-23T10:39:30.753Z,1.1
2019-05-23T10:40:30.832Z,0.8
2019-05-23T10:42:30.936Z,1.3
2019-05-23T10:43:30.913Z,0.8
2019-05-23T10:44:31.100Z,1.4
2019-05-23T10:46:01.049Z,0.6
2019-05-23T10:47:01.030Z,0.8
2019-05-23T10:47:41.070Z,1.3
2019-05-23T10:48:41.073Z,1.6
2019-05-23T10:49:41.123Z,1.0
2019-05-23T10:51:01.095Z,0.9
2019-05-23T10:52:01.108Z,0.4
2019-05-23T10:52:41.116Z,0.4
2019-05-23T10:53:41.127Z,0.9
2019-05-23T10:54:41.157Z,0.9
2019-05-23T10:56:01.206Z,1.3
2019-05-23T10:57:01.183Z,1.7
2019-05-23T10:57:42.365Z,1.3
2019-05-23T10:58:41.213Z,1.6
2019-05-23T10:59:41.243Z,1.0
2019-05-23T11:01:01.297Z,1.7
2019-05-23T11:02:01.337Z,1.0
2019-05-23T11:02:41.350Z,1.1
2019-05-23T11:03:41.350Z,1.3
2019-05-23T11:04:41.369Z,1.0
2019-05-23T11:06:14.668Z,1.0
2019-05-23T11:07:01.401Z,0.8
2019-05-23T11:07:41.411Z,0.8
2019-05-23T11:08:41.463Z,1.5
2019-05-23T11:09:41.557Z,1.2
2019-05-23T11:11:01.582Z,1.4
2019-05-23T11:12:01.568Z,1.5
2019-05-23T11:12:41.579Z,1.0
2019-05-23T11:13:41.603Z,1.1
2019-05-23T11:14:41.654Z,1.3
2019-05-23T11:16:01.685Z,1.3
2019-05-23T11:17:01.689Z,1.8
2019-05-23T11:17:41.743Z,0.9
2019-05-23T11:18:41.710Z,0.8
2019-05-23T11:19:41.718Z,0.9
2019-05-23T11:21:01.857Z,0.9
2019-05-23T11:22:01.805Z,1.1
2019-05-23T11:22:41.819Z,1.4
2019-05-23T11:23:41.849Z,0.7
2019-05-23T11:24:41.864Z,1.5
2019-05-23T11:26:02.664Z,1.2
2019-05-23T11:27:01.992Z,1.0
2019-05-23T11:27:41.912Z,1.4
2019-05-23T11:28:41.973Z,1.3
2019-05-23T11:29:41.951Z,0.8
2019-05-23T11:31:02.112Z,1.8
2019-05-23T11:32:02.970Z,2.1
2019-05-23T11:32:41.997Z,1.6
2019-05-23T11:33:32.005Z,0.8
2019-05-23T11:34:32.028Z,0.8
2019-05-23T11:37:32.066Z,1.2
2019-05-23T11:38:32.089Z,1.0
2019-05-23T11:39:49.263Z,1.2
2019-05-23T11:41:02.164Z,1.0
2019-05-23T11:42:02.181Z,1.0
2019-05-23T11:42:42.189Z,1.5
2019-05-23T11:43:32.672Z,1.1
2019-05-23T11:44:32.209Z,0.8
2019-05-23T11:48:32.258Z,1.0
2019-05-23T11:49:43.171Z,1.3
2019-05-23T11:51:02.338Z,1.0
2019-05-23T11:52:02.349Z,0.8
2019-05-23T11:52:42.361Z,0.6
2019-05-23T11:53:45.518Z,0.8
2019-05-23T11:54:42.391Z,1.2
2019-05-23T11:56:02.466Z,1.7
2019-05-23T11:57:02.480Z,1.6
2019-05-23T11:57:42.445Z,1.9
2019-05-23T11:58:42.446Z,1.1
2019-05-23T11:59:42.456Z,0.8
2019-05-23T12:01:02.502Z,1.5
2019-05-23T12:02:02.490Z,1.9
2019-05-23T12:02:42.501Z,1.9
2019-05-23T12:03:32.508Z,1.1
2019-05-23T12:04:32.550Z,0.4
2019-05-23T12:07:32.569Z,0.8
2019-05-23T12:08:32.624Z,0.6
2019-05-23T12:09:42.649Z,1.3
2019-05-23T12:12:02.672Z,0.8
2019-05-23T12:12:42.678Z,0.9
2019-05-23T12:13:42.680Z,1.3
2019-05-23T12:14:42.708Z,1.7
2019-05-23T12:16:02.732Z,0.9
2019-05-23T12:17:02.739Z,1.2
2019-05-23T12:17:42.844Z,1.7
2019-05-23T12:18:42.769Z,1.7
2019-05-23T12:19:42.835Z,1.4
2019-05-23T12:21:03.004Z,0.8
2019-05-23T12:22:04.141Z,0.6
2019-05-23T12:22:43.186Z,0.2
2019-05-23T12:23:43.035Z,0.9
2019-05-23T12:24:43.128Z,0.8
2019-05-23T12:26:03.114Z,0.8
2019-05-23T12:27:03.114Z,1.0
2019-05-23T12:27:43.123Z,0.8
2019-05-23T12:28:43.153Z,1.2
2019-05-23T12:29:43.163Z,0.8
2019-05-23T12:31:03.191Z,0.8
2019-05-23T12:32:03.182Z,0.9
2019-05-23T12:32:43.194Z,0.9
2019-05-23T12:33:44.311Z,1.0
2019-05-23T12:36:03.302Z,0.8
2019-05-23T12:37:17.837Z,1.3
2019-05-23T12:37:43.291Z,1.6
2019-05-23T12:38:43.296Z,0.8
2019-05-23T12:39:43.306Z,1.2
2019-05-23T12:42:33.347Z,0.8
2019-05-23T12:43:33.411Z,1.4
2019-05-23T12:44:33.417Z,1.6
2019-05-23T12:47:33.446Z,0.5
2019-05-23T12:48:34.713Z,0.8
2019-05-23T12:49:33.489Z,0.0
2019-05-23T12:55:43.600Z,0.6
2019-05-23T12:57:33.670Z,0.8
2019-05-23T12:58:33.678Z,0.6
2019-05-23T13:00:53.715Z,1.2
2019-05-23T13:01:43.780Z,0.6
2019-05-23T13:02:33.776Z,0.6
2019-05-23T13:03:34.934Z,0.6
2019-05-23T13:04:33.758Z,0.4
2019-05-23T13:05:53.787Z,0.2
2019-05-23T13:06:53.840Z,0.8
2019-05-23T13:07:36.511Z,0.9
2019-05-23T13:08:33.819Z,0.4
2019-05-23T13:09:33.836Z,0.5
2019-05-23T13:10:53.842Z,0.9
2019-05-23T13:11:53.865Z,0.9
2019-05-23T13:12:34.035Z,1.0
2019-05-23T13:13:33.914Z,0.8
2019-05-23T13:14:34.047Z,1.0
2019-05-23T13:17:33.973Z,1.1
2019-05-23T13:18:33.986Z,1.1
2019-05-23T13:19:34.031Z,0.7
2019-05-23T13:21:44.083Z,0.9
2019-05-23T13:25:44.300Z,0.7
2019-05-23T13:27:34.202Z,1.2
2019-05-23T13:28:34.223Z,1.3
2019-05-23T13:29:34.231Z,2.0
2019-05-23T13:32:34.273Z,1.0
2019-05-23T13:33:34.285Z,0.8
2019-05-23T13:34:34.293Z,0.8
2019-05-23T13:36:44.368Z,0.8
2019-05-23T13:37:25.290Z,0.8
2019-05-23T13:40:44.432Z,1.3
2019-05-23T13:42:34.500Z,1.2
2019-05-23T13:43:34.650Z,0.8
2019-05-23T13:44:35.829Z,0.8
2019-05-23T13:46:44.639Z,0.8
2019-05-23T13:50:44.694Z,0.9
2019-05-23T13:52:34.703Z,1.1
2019-05-23T13:53:34.719Z,1.1
2019-05-23T13:54:36.365Z,1.5
2019-05-23T13:56:47.678Z,2.0
2019-05-23T13:59:24.950Z,0.9
2019-05-23T14:00:44.814Z,1.3
2019-05-23T14:02:34.857Z,0.9
2019-05-23T14:03:34.970Z,0.9
2019-05-23T14:04:34.964Z,0.8
2019-05-23T14:07:05.065Z,0.8
2019-05-23T14:07:45.066Z,0.9
2019-05-23T14:08:45.132Z,1.1
2019-05-23T14:09:45.117Z,1.2
2019-05-23T14:11:06.043Z,0.9
2019-05-23T14:12:20.359Z,0.7
2019-05-23T14:12:45.151Z,0.6
2019-05-23T14:13:45.675Z,0.8
2019-05-23T14:14:45.227Z,0.8
2019-05-23T14:16:05.248Z,1.0
2019-05-23T14:17:05.265Z,1.5
2019-05-23T14:17:45.283Z,1.2
2019-05-23T14:18:45.364Z,1.3
2019-05-23T14:19:45.449Z,0.9
2019-05-23T14:21:05.414Z,1.4
2019-05-23T14:22:05.564Z,1.1
2019-05-23T14:22:45.469Z,0.9
2019-05-23T14:23:45.476Z,0.8
2019-05-23T14:24:45.506Z,0.8
2019-05-23T14:26:05.550Z,0.8
2019-05-23T14:27:05.582Z,0.9
2019-05-23T14:27:45.575Z,0.8
2019-05-23T14:28:45.591Z,0.8
2019-05-23T14:29:45.601Z,0.8
2019-05-23T14:31:05.612Z,0.8
2019-05-23T14:32:05.624Z,0.8
2019-05-23T14:32:45.645Z,0.8
2019-05-23T14:33:45.654Z,1.3
2019-05-23T14:34:45.678Z,0.8
2019-05-23T14:36:05.673Z,0.8
2019-05-23T14:37:05.682Z,1.0
2019-05-23T14:37:45.711Z,1.0
2019-05-23T14:38:45.721Z,0.4
2019-05-23T14:39:45.871Z,0.6
2019-05-23T14:41:05.790Z,0.9
2019-05-23T14:42:05.818Z,0.0
2019-05-23T14:42:45.865Z,0.0
2019-05-23T14:43:45.832Z,0.0
2019-05-23T14:44:45.850Z,0.8
2019-05-23T14:46:05.868Z,0.8
2019-05-23T14:47:05.898Z,0.0
2019-05-23T14:47:45.905Z,0.6
2019-05-23T14:48:45.928Z,0.8
2019-05-23T14:49:45.946Z,0.6
2019-05-23T14:51:05.963Z,0.6
2019-05-23T14:52:06.002Z,0.6
2019-05-23T14:52:46.022Z,0.6
2019-05-23T14:53:46.007Z,0.0
2019-05-23T14:54:46.135Z,0.6
2019-05-23T14:56:06.045Z,0.2
2019-05-23T14:57:06.101Z,0.4
2019-05-23T14:57:46.129Z,0.6
2019-05-23T14:58:46.179Z,0.8
2019-05-23T14:59:46.197Z,0.8
2019-05-23T15:01:06.203Z,0.2
2019-05-23T15:02:06.233Z,0.0
2019-05-23T15:02:46.261Z,0.2
2019-05-23T15:03:46.264Z,0.8
2019-05-23T15:04:46.277Z,0.6
2019-05-23T15:06:06.343Z,0.6
2019-05-23T15:07:06.357Z,0.0
2019-05-23T15:07:46.373Z,0.0
2019-05-23T15:08:50.807Z,0.0
2019-05-23T15:09:47.250Z,0.0
2019-05-23T15:11:06.490Z,0.4
2019-05-23T15:12:06.427Z,0.6
2019-05-23T15:12:46.437Z,0.4
2019-05-23T15:13:46.470Z,0.6
2019-05-23T15:14:46.503Z,0.0
2019-05-23T15:16:06.527Z,0.0
2019-05-23T15:17:06.596Z,0.8
2019-05-23T15:17:46.568Z,0.6
2019-05-23T15:18:46.658Z,0.4
2019-05-23T15:19:46.658Z,0.4
2019-05-23T15:21:06.881Z,0.4
2019-05-23T15:22:06.827Z,0.6
2019-05-23T15:22:46.797Z,0.4
2019-05-23T15:23:46.816Z,0.8
2019-05-23T15:24:46.953Z,0.6
2019-05-23T15:26:21.378Z,0.8
2019-05-23T15:27:17.032Z,0.8
2019-05-23T15:28:17.087Z,0.8
2019-05-23T15:29:17.048Z,0.9
2019-05-23T15:30:37.060Z,0.6
2019-05-23T15:35:47.145Z,0.8
2019-05-23T15:40:47.312Z,0.8
2019-05-23T15:45:47.417Z,0.4
2019-05-23T15:50:47.504Z,0.0
2019-05-23T15:55:47.595Z,0.4
2019-05-23T16:00:47.750Z,0.0
2019-05-23T16:05:47.861Z,0.8
2019-05-23T16:09:29.081Z,0.2
2019-05-23T16:12:58.480Z,0.8
2019-05-23T16:14:17.978Z,1.0
2019-05-23T16:15:39.119Z,0.6
2019-05-23T16:20:48.108Z,0.8
2019-05-23T16:24:18.145Z,0.8
2019-05-23T16:25:38.205Z,0.8
2019-05-23T16:26:29.226Z,0.8
2019-05-23T16:27:18.216Z,0.6
2019-05-23T16:28:18.272Z,0.4
2019-05-23T16:29:18.272Z,0.9
2019-05-23T16:30:18.274Z,0.9
2019-05-23T16:31:18.285Z,0.8
2019-05-23T16:32:18.361Z,0.8
2019-05-23T16:33:18.395Z,0.9
2019-05-23T16:34:18.388Z,0.8
2019-05-23T16:36:18.434Z,0.8
2019-05-23T16:37:18.462Z,0.8
2019-05-23T16:38:18.487Z,0.4
2019-05-23T16:39:18.524Z,0.8
2019-05-23T16:40:38.674Z,1.0
2019-05-23T16:41:18.577Z,0.8
2019-05-23T16:42:18.599Z,0.8
2019-05-23T16:43:18.647Z,0.2
2019-05-23T16:44:18.728Z,0.4
2019-05-23T16:45:38.726Z,0.8
2019-05-23T16:46:18.744Z,0.2
2019-05-23T16:47:18.768Z,0.0
2019-05-23T16:48:18.769Z,0.0
2019-05-23T16:49:18.801Z,0.6
2019-05-23T16:50:38.871Z,0.8
2019-05-23T16:51:18.826Z,0.8
2019-05-23T16:55:48.911Z,0.8
2019-05-23T16:59:30.299Z,0.2
2019-05-23T17:00:49.052Z,0.0
2019-05-23T17:03:29.197Z,0.4
2019-05-23T17:05:49.123Z,0.0
2019-05-23T17:10:49.186Z,0.6
2019-05-23T17:15:49.396Z,0.0
2019-05-23T17:19:19.464Z,0.2
2019-05-23T17:20:39.502Z,0.2
2019-05-23T17:21:19.931Z,0.6
2019-05-23T17:22:19.539Z,0.0
2019-05-23T17:25:49.640Z,0.0
2019-05-23T17:26:19.654Z,0.0
2019-05-23T17:28:19.681Z,0.2
2019-05-23T17:30:39.733Z,0.0
2019-05-23T17:36:19.844Z,0.0
2019-05-23T17:40:39.938Z,0.0
2019-05-23T17:41:29.919Z,0.0
2019-05-23T17:43:09.996Z,0.0
2019-05-23T17:44:09.980Z,0.0
2019-05-23T17:45:20.032Z,0.0
2019-05-23T17:46:09.994Z,0.0
2019-05-23T17:47:10.001Z,0.0
2019-05-23T17:48:10.034Z,0.0
2019-05-23T17:49:10.040Z,0.0
2019-05-23T17:50:20.103Z,0.0
2019-05-23T17:51:20.084Z,0.0
2019-05-23T17:54:10.138Z,0.0
2019-05-23T17:55:21.655Z,0.0
2019-05-23T17:56:20.195Z,0.0
2019-05-23T18:00:40.324Z,0.0
2019-05-23T18:05:40.578Z,0.0
2019-05-23T18:06:31.712Z,0.0
2019-05-23T18:10:44.933Z,0.0
2019-05-23T18:15:40.709Z,0.8
2019-05-23T18:20:40.878Z,0.8
2019-05-23T18:25:41.129Z,0.8
2019-05-23T18:30:51.241Z,0.6
2019-05-23T18:33:31.379Z,0.8
2019-05-23T18:34:31.387Z,0.8
2019-05-23T18:35:51.404Z,0.8
2019-05-23T18:36:31.413Z,0.8
2019-05-23T18:37:31.518Z,0.8
2019-05-23T18:38:31.538Z,0.8
2019-05-23T18:39:32.517Z,0.8
2019-05-23T18:41:02.134Z,0.8
2019-05-23T18:42:31.613Z,0.8
2019-05-23T18:43:31.615Z,0.8
2019-05-23T18:45:51.661Z,0.8
2019-05-23T18:46:31.666Z,0.8
2019-05-23T18:47:31.688Z,0.8
2019-05-23T18:49:31.808Z,0.0
2019-05-23T18:50:51.822Z,0.6
2019-05-23T18:55:42.043Z,0.8
2019-05-23T18:56:42.010Z,0.8
2019-05-23T18:58:52.032Z,0.8
2019-05-23T18:59:52.068Z,0.8
2019-05-23T19:03:52.092Z,0.8
2019-05-23T19:04:52.106Z,0.2
2019-05-23T19:05:52.115Z,0.8
2019-05-23T19:06:52.130Z,0.8
2019-05-23T19:10:52.189Z,0.8
2019-05-23T19:11:52.290Z,0.8
2019-05-23T19:15:42.424Z,0.0
2019-05-23T19:16:42.432Z,0.0
2019-05-23T19:20:42.533Z,0.0
2019-05-23T19:21:42.555Z,0.0
2019-05-23T19:23:33.704Z,0.0
2019-05-23T19:25:42.630Z,0.0
2019-05-23T19:26:42.646Z,0.0
2019-05-23T19:30:42.726Z,0.0
2019-05-23T19:31:42.827Z,0.0
2019-05-23T19:35:42.897Z,0.0
2019-05-23T19:36:42.906Z,0.0
2019-05-23T19:40:42.999Z,0.0
2019-05-23T19:41:43.016Z,0.0
2019-05-23T19:45:43.073Z,0.0
2019-05-23T19:46:43.091Z,0.0
2019-05-23T19:50:43.169Z,0.0
2019-05-23T19:51:43.169Z,0.0
2019-05-23T19:52:43.181Z,0.0
2019-05-23T19:53:43.218Z,0.0
2019-05-23T19:54:43.259Z,0.0
2019-05-23T19:55:53.241Z,0.0
2019-05-23T19:56:53.943Z,0.0
2019-05-23T19:57:43.260Z,0.0
2019-05-23T19:58:43.281Z,0.0
2019-05-23T19:59:43.300Z,0.0
2019-05-23T20:00:53.328Z,0.6
2019-05-23T20:01:43.340Z,0.0
2019-05-23T20:05:43.393Z,0.8
2019-05-23T20:06:43.411Z,0.8
2019-05-23T20:10:43.480Z,0.8
2019-05-23T20:11:53.583Z,0.8
2019-05-23T20:15:45.799Z,0.4
2019-05-23T20:20:43.705Z,0.8
2019-05-23T20:25:43.803Z,0.0
2019-05-23T20:30:43.897Z,0.0
2019-05-23T20:35:43.951Z,0.0